KATW

Appleton International Airport

Appleton, Wisconsin, USA
METAR KATW 230955Z AUTO 14009KT 7SM -RA OVC005 00/00 A3006 RMK AO2 P0001
Observed Flight Rules
Feb-23 @ 09:55 UTC (29 minutes ago) Instrument Flight Rules
Wind Visibility Clouds Conditions
140° at 9 knots 7 miles
  • Overcast at 500' AGL
  • Light Rain
Temperatures Readings Precipitation
Current 0°C / 32°F
Dewpoint 0°C / 32°F
Humidity 100%
Altimeter 30.06" Hg
Pressure 1018 hPa
Elevation 280
Current Rain 0.01
METAR KATW 230955Z AUTO 14009KT 7SM -RA OVC005 00/00 A3006 RMK AO2 P0001
Observed Flight Rules
Feb-23 @ 09:55 UTC
(29 minutes ago)
IFR
Wind Visibility
140° at 9 knots 7 miles
Clouds
  • Overcast at 500' AGL
Conditions
  • Light Rain
Temperature Dewpoint
0°C / 32°F 0°C / 32°F
Humidity Altimeter Pressure
100% 30.06" Hg 1018 hPa
Current Rain
0.01